Jefferson Manor, Virginia
Current Conditions -  °F | °C
As of 8:52 AM on Wednesday 26 Nov 2014 (Local Time) from KDCA Reporting Station
Moderate Rain Moderate Rain  
Wind Chill: 37°   Ceiling: 1300
Heat Index: 43°   Visibility: 3mi
Dew Point: 37°   Wind: 12mph
Humidity: 80%   Direction: 50°NE
Pressure: 30.09"   Gusts: NA
Location:  38.7966°N, 77.0812°W
Report Text: KDCA 261352Z 05010KT 3SM RA BKN013 OVC026 06/03 A3009 RMK AO2 SLP187 P0010 T00610028
Loading
Personal Weather Stations






























Interactive Weather Map New forecast layout! Learn more

10-Day Weather Forecast

Advertisements
Track Severe Weather on mobile